Wetterstation Vordersexau
Wetterdaten: Woche 28.05.12 - 03.06.12 (KW22)
Datum Zeit Temp. A. Feuchte A. Luftdruck Regen Wind Richtung Taupunkt Windchill Windben
28.05.2012 00:00 13,6 C 69 % 1014,3 hPa 0,0 l/m 0,0 km/h NO 8,0 C 13,6 C 0,0 km/h
28.05.2012 01:00 11,9 C 74 % 1014,4 hPa 0,0 l/m 0,0 km/h NO 7,4 C 11,9 C 0,0 km/h
28.05.2012 02:00 10,6 C 77 % 1014,3 hPa 0,0 l/m 0,0 km/h NO 6,7 C 10,6 C 0,0 km/h
28.05.2012 03:00 10,2 C 79 % 1014,3 hPa 0,0 l/m 0,0 km/h N-NO 6,7 C 10,2 C 0,0 km/h
28.05.2012 04:00 9,3 C 82 % 1014,3 hPa 0,0 l/m 0,0 km/h O-SO 6,4 C 9,3 C 0,0 km/h
28.05.2012 05:00 8,7 C 83 % 1014,3 hPa 0,0 l/m 0,0 km/h NO 6,0 C 8,7 C 0,0 km/h
28.05.2012 06:00 9,1 C 83 % 1014,8 hPa 0,0 l/m 0,0 km/h O-SO 6,4 C 9,1 C 0,0 km/h
28.05.2012 07:00 12,9 C 82 % 1014,8 hPa 0,0 l/m 0,0 km/h SO 9,9 C 12,9 C 0,0 km/h
28.05.2012 08:00 22,4 C 54 % 1014,9 hPa 0,0 l/m 0,0 km/h N 12,6 C 22,4 C 0,0 km/h
28.05.2012 09:00 25,3 C 44 % 1014,8 hPa 0,0 l/m 0,0 km/h SW 12,2 C 25,3 C 0,0 km/h
28.05.2012 10:00 26,4 C 42 % 1014,6 hPa 0,0 l/m 22,7 km/h W 12,4 C 24,2 C 12,6 km/h
28.05.2012 11:00 27,6 C 41 % 1014,3 hPa 0,0 l/m 3,2 km/h SW 13,1 C 27,6 C 1,8 km/h
28.05.2012 12:00 25,9 C 41 % 1014,1 hPa 0,0 l/m 0,0 km/h W-NW 11,6 C 25,9 C 0,0 km/h
28.05.2012 13:00 26,4 C 36 % 1013,9 hPa 0,0 l/m 12,3 km/h NO 10,1 C 25,4 C 6,8 km/h
28.05.2012 14:00 27,1 C 34 % 1013,5 hPa 0,0 l/m 1,3 km/h N-NO 9,9 C 27,1 C 0,7 km/h
28.05.2012 15:00 29,2 C 29 % 1013,1 hPa 0,0 l/m 1,9 km/h N-NO 9,3 C 29,2 C 1,1 km/h
28.05.2012 16:00 32,4 C 26 % 1012,8 hPa 0,0 l/m 0,0 km/h N-NO 10,4 C 32,4 C 0,0 km/h
28.05.2012 17:00 33,0 C 25 % 1012,6 hPa 0,0 l/m 1,3 km/h N-NO 10,3 C 33,0 C 0,7 km/h
28.05.2012 18:00 31,4 C 27 % 1012,4 hPa 0,0 l/m 0,0 km/h N-NO 10,1 C 31,4 C 0,0 km/h
28.05.2012 19:00 26,5 C 34 % 1012,3 hPa 0,0 l/m 9,7 km/h N-NW 9,3 C 25,9 C 5,4 km/h
28.05.2012 20:00 22,1 C 45 % 1012,5 hPa 0,0 l/m 0,0 km/h NO 9,6 C 22,1 C 0,0 km/h
28.05.2012 21:00 19,0 C 59 % 1012,5 hPa 0,0 l/m 0,0 km/h O 10,8 C 19,0 C 0,0 km/h
28.05.2012 22:00 17,3 C 66 % 1012,8 hPa 0,0 l/m 0,0 km/h NO 10,9 C 17,3 C 0,0 km/h
28.05.2012 23:00 17,1 C 66 % 1012,8 hPa 0,0 l/m 0,0 km/h O-NO 10,7 C 17,1 C 0,0 km/h
29.05.2012 00:00 16,8 C 68 % 1012,7 hPa 0,0 l/m 0,0 km/h N-NO 10,9 C 16,8 C 0,0 km/h
29.05.2012 01:00 16,5 C 71 % 1012,7 hPa 0,0 l/m 0,0 km/h O-NO 11,2 C 16,5 C 0,0 km/h
29.05.2012 02:00 14,6 C 76 % 1012,9 hPa 0,0 l/m 0,0 km/h O-NO 10,4 C 14,6 C 0,0 km/h
29.05.2012 03:00 13,3 C 78 % 1013,0 hPa 0,0 l/m 0,0 km/h NO 9,5 C 13,3 C 0,0 km/h
29.05.2012 04:00 12,3 C 81 % 1012,9 hPa 0,0 l/m 0,0 km/h O-NO 9,1 C 12,3 C 0,0 km/h
29.05.2012 05:00 11,5 C 82 % 1012,8 hPa 0,0 l/m 0,0 km/h NO 8,5 C 11,5 C 0,0 km/h
29.05.2012 06:00 11,4 C 83 % 1013,1 hPa 0,0 l/m 0,0 km/h O-NO 8,6 C 11,4 C 0,0 km/h
29.05.2012 07:00 15,2 C 82 % 1013,4 hPa 0,0 l/m 0,0 km/h NO 12,1 C 15,2 C 0,0 km/h
29.05.2012 08:00 24,6 C 56 % 1013,6 hPa 0,0 l/m 0,0 km/h SW 15,2 C 24,6 C 0,0 km/h
29.05.2012 09:00 26,8 C 46 % 1013,7 hPa 0,0 l/m 0,0 km/h W-NW 14,2 C 26,8 C 0,0 km/h
29.05.2012 10:00 28,4 C 43 % 1013,7 hPa 0,0 l/m 5,8 km/h W 14,6 C 28,4 C 3,2 km/h
29.05.2012 11:00 27,9 C 40 % 1013,6 hPa 0,0 l/m 5,8 km/h W-NW 13,0 C 27,9 C 3,2 km/h
29.05.2012 12:00 26,5 C 40 % 1013,5 hPa 0,0 l/m 3,9 km/h NW 11,8 C 26,5 C 2,2 km/h
29.05.2012 13:00 27,8 C 34 % 1013,1 hPa 0,0 l/m 9,1 km/h W 10,5 C 27,4 C 5,0 km/h
29.05.2012 14:00 28,6 C 31 % 1013,1 hPa 0,0 l/m 1,9 km/h N 9,8 C 28,6 C 1,1 km/h
29.05.2012 15:00 30,6 C 28 % 1012,8 hPa 0,0 l/m 14,9 km/h O-SO 10,0 C 30,1 C 8,3 km/h
29.05.2012 16:00 33,8 C 25 % 1012,6 hPa 0,0 l/m 0,0 km/h N-NO 11,0 C 33,8 C 0,0 km/h
29.05.2012 17:00 35,3 C 21 % 1012,3 hPa 0,0 l/m 0,0 km/h N-NO 9,6 C 35,3 C 0,0 km/h
29.05.2012 18:00 34,1 C 23 % 1012,3 hPa 0,0 l/m 0,0 km/h N-NO 10,0 C 34,1 C 0,0 km/h
29.05.2012 19:00 28,3 C 27 % 1012,4 hPa 0,0 l/m 0,0 km/h N-NO 7,5 C 28,3 C 0,0 km/h
29.05.2012 20:00 22,8 C 40 % 1012,4 hPa 0,0 l/m 0,0 km/h O 8,5 C 22,8 C 0,0 km/h
29.05.2012 21:00 17,8 C 57 % 1012,9 hPa 0,0 l/m 0,0 km/h O-SO 9,2 C 17,8 C 0,0 km/h
29.05.2012 22:00 15,9 C 63 % 1013,6 hPa 0,0 l/m 0,0 km/h O-SO 8,9 C 15,9 C 0,0 km/h
29.05.2012 23:00 15,8 C 66 % 1013,9 hPa 0,0 l/m 0,0 km/h N-NO 9,5 C 15,8 C 0,0 km/h
30.05.2012 00:00 14,6 C 71 % 1014,0 hPa 0,0 l/m 0,0 km/h N-NO 9,4 C 14,6 C 0,0 km/h
30.05.2012 01:00 13,6 C 74 % 1014,0 hPa 0,0 l/m 0,0 km/h NO 9,1 C 13,6 C 0,0 km/h
30.05.2012 02:00 13,0 C 77 % 1013,9 hPa 0,0 l/m 0,0 km/h SO 9,1 C 13,0 C 0,0 km/h
30.05.2012 03:00 12,5 C 79 % 1014,2 hPa 0,0 l/m 0,0 km/h SO 9,0 C 12,5 C 0,0 km/h
30.05.2012 04:00 11,7 C 81 % 1014,3 hPa 0,0 l/m 0,0 km/h O-SO 8,5 C 11,7 C 0,0 km/h
30.05.2012 05:00 11,1 C 82 % 1014,5 hPa 0,0 l/m 0,0 km/h NO 8,1 C 11,1 C 0,0 km/h
30.05.2012 06:00 11,5 C 83 % 1015,3 hPa 0,0 l/m 0,0 km/h S 8,7 C 11,5 C 0,0 km/h
30.05.2012 07:00 15,6 C 81 % 1015,8 hPa 0,0 l/m 0,0 km/h SO 12,3 C 15,6 C 0,0 km/h
30.05.2012 08:00 23,5 C 57 % 1015,9 hPa 0,0 l/m 0,0 km/h W 14,5 C 23,5 C 0,0 km/h
30.05.2012 09:00 27,8 C 44 % 1016,2 hPa 0,0 l/m 0,6 km/h N-NO 14,4 C 27,8 C 0,4 km/h
30.05.2012 10:00 29,8 C 38 % 1016,2 hPa 0,0 l/m 0,0 km/h SO 13,9 C 29,8 C 0,0 km/h
30.05.2012 11:00 29,7 C 39 % 1016,2 hPa 0,0 l/m 6,5 km/h NW 14,2 C 29,7 C 3,6 km/h
30.05.2012 12:00 28,1 C 38 % 1016,1 hPa 0,0 l/m 0,0 km/h W-SW 12,4 C 28,1 C 0,0 km/h
30.05.2012 13:00 29,9 C 37 % 1015,5 hPa 0,0 l/m 12,3 km/h NO 13,6 C 29,4 C 6,8 km/h
30.05.2012 14:00 26,2 C 45 % 1015,3 hPa 0,0 l/m 0,0 km/h W 13,3 C 26,2 C 0,0 km/h
30.05.2012 15:00 31,8 C 35 % 1015,1 hPa 0,0 l/m 1,9 km/h W-NW 14,4 C 31,8 C 1,1 km/h
30.05.2012 16:00 24,3 C 47 % 1015,4 hPa 0,0 l/m 11,7 km/h O-NO 12,3 C 23,0 C 6,5 km/h
30.05.2012 17:00 19,6 C 65 % 1015,5 hPa 0,0 l/m 0,0 km/h O-SO 12,8 C 19,6 C 0,0 km/h
30.05.2012 18:00 25,4 C 52 % 1015,7 hPa 0,0 l/m 10,4 km/h N-NO 14,8 C 24,5 C 5,8 km/h
30.05.2012 19:00 22,0 C 59 % 1015,3 hPa 0,0 l/m 0,0 km/h N-NW 13,6 C 22,0 C 0,0 km/h
30.05.2012 20:00 19,3 C 72 % 1016,2 hPa 0,0 l/m 0,0 km/h S-SO 14,1 C 19,3 C 0,0 km/h
30.05.2012 21:00 17,2 C 76 % 1017,4 hPa 0,0 l/m 5,2 km/h N 12,9 C 17,2 C 2,9 km/h
30.05.2012 22:00 15,6 C 74 % 1017,0 hPa 0,0 l/m 0,0 km/h O-NO 11,0 C 15,6 C 0,0 km/h
30.05.2012 23:00 13,9 C 79 % 1017,4 hPa 0,0 l/m 0,0 km/h O-SO 10,3 C 13,9 C 0,0 km/h
31.05.2012 00:00 12,4 C 81 % 1017,5 hPa 0,0 l/m 0,0 km/h O-SO 9,2 C 12,4 C 0,0 km/h
31.05.2012 01:00 11,4 C 83 % 1017,5 hPa 0,4 l/m 0,0 km/h O-NO 8,6 C 11,4 C 0,0 km/h
31.05.2012 02:00 11,2 C 83 % 1017,4 hPa 0,0 l/m 0,0 km/h O-NO 8,4 C 11,2 C 0,0 km/h
31.05.2012 03:00 11,3 C 83 % 1017,1 hPa 0,0 l/m 0,0 km/h O-SO 8,5 C 11,3 C 0,0 km/h
31.05.2012 04:00 10,9 C 84 % 1017,2 hPa 0,0 l/m 0,0 km/h O-SO 8,3 C 10,9 C 0,0 km/h
31.05.2012 05:00 10,4 C 84 % 1017,4 hPa 0,0 l/m 0,0 km/h O 7,8 C 10,4 C 0,0 km/h
31.05.2012 06:00 11,0 C 83 % 1018,2 hPa 0,0 l/m 0,0 km/h O-SO 8,2 C 11,0 C 0,0 km/h
31.05.2012 07:00 13,8 C 74 % 1018,3 hPa 0,0 l/m 0,0 km/h SO 9,2 C 13,8 C 0,0 km/h
31.05.2012 08:00 21,3 C 71 % 1018,3 hPa 0,0 l/m 0,0 km/h W 15,8 C 21,3 C 0,0 km/h
31.05.2012 09:00 25,6 C 55 % 1018,4 hPa 0,0 l/m 0,0 km/h W 15,9 C 25,6 C 0,0 km/h
31.05.2012 10:00 27,0 C 52 % 1017,8 hPa 0,0 l/m 0,0 km/h W 16,3 C 27,0 C 0,0 km/h
31.05.2012 11:00 25,0 C 55 % 1017,7 hPa 0,0 l/m 7,8 km/h S-SW 15,3 C 24,6 C 4,3 km/h
31.05.2012 12:00 26,4 C 48 % 1017,5 hPa 0,0 l/m 1,9 km/h W-SW 14,5 C 26,4 C 1,1 km/h
31.05.2012 13:00 27,2 C 43 % 1016,9 hPa 0,0 l/m 20,7 km/h W-NW 13,5 C 25,5 C 11,5 km/h
31.05.2012 14:00 28,1 C 40 % 1016,3 hPa 0,0 l/m 26,6 km/h W-SW 13,2 C 26,3 C 14,8 km/h
31.05.2012 15:00 26,1 C 43 % 1015,7 hPa 0,0 l/m 9,1 km/h SW 12,5 C 25,5 C 5,0 km/h
31.05.2012 16:00 24,3 C 44 % 1014,9 hPa 0,0 l/m 24,0 km/h W-NW 11,3 C 21,3 C 13,3 km/h
31.05.2012 17:00 25,3 C 47 % 1014,5 hPa 0,0 l/m 3,2 km/h W-SW 13,2 C 25,3 C 1,8 km/h
31.05.2012 18:00 23,5 C 51 % 1014,3 hPa 0,0 l/m 13,0 km/h W-NW 12,8 C 21,9 C 7,2 km/h
31.05.2012 19:00 21,5 C 57 % 1014,3 hPa 0,0 l/m 16,2 km/h W 12,6 C 18,8 C 9,0 km/h
31.05.2012 20:00 20,9 C 63 % 1014,1 hPa 0,0 l/m 9,7 km/h N-NO 13,6 C 19,7 C 5,4 km/h
31.05.2012 21:00 17,1 C 79 % 1015,1 hPa 2,5 l/m 0,0 km/h O-NO 13,4 C 17,1 C 0,0 km/h
31.05.2012 22:00 16,9 C 82 % 1015,2 hPa 0,4 l/m 0,0 km/h O-NO 13,8 C 16,9 C 0,0 km/h
31.05.2012 23:00 16,6 C 82 % 1015,3 hPa 0,0 l/m 0,0 km/h O-NO 13,5 C 16,6 C 0,0 km/h
01.06.2012 00:00 16,4 C 82 % 1015,0 hPa 0,0 l/m 0,0 km/h N-NO 13,3 C 16,4 C 0,0 km/h
01.06.2012 01:00 16,1 C 83 % 1015,8 hPa 0,0 l/m 0,0 km/h O-SO 13,2 C 16,1 C 0,0 km/h
01.06.2012 02:00 15,2 C 84 % 1015,8 hPa 0,0 l/m 0,0 km/h O-SO 12,5 C 15,2 C 0,0 km/h
01.06.2012 03:00 14,9 C 83 % 1015,7 hPa 0,0 l/m 0,0 km/h O-NO 12,0 C 14,9 C 0,0 km/h
01.06.2012 04:00 14,6 C 83 % 1015,8 hPa 0,0 l/m 0,0 km/h N-NO 11,7 C 14,6 C 0,0 km/h
01.06.2012 05:00 14,4 C 83 % 1015,8 hPa 0,0 l/m 0,0 km/h N-NO 11,5 C 14,4 C 0,0 km/h
01.06.2012 06:00 14,5 C 83 % 1016,2 hPa 0,0 l/m 0,0 km/h SW 11,6 C 14,5 C 0,0 km/h
01.06.2012 07:00 14,9 C 83 % 1016,6 hPa 0,0 l/m 7,1 km/h SO 12,0 C 14,5 C 4,0 km/h
01.06.2012 08:00 14,8 C 83 % 1017,0 hPa 0,0 l/m 0,0 km/h SO 11,9 C 14,8 C 0,0 km/h
01.06.2012 09:00 16,1 C 83 % 1017,5 hPa 0,0 l/m 3,9 km/h W-SW 13,2 C 16,1 C 2,2 km/h
01.06.2012 10:00 19,6 C 71 % 1017,5 hPa 0,0 l/m 6,5 km/h W-SW 14,2 C 19,6 C 3,6 km/h
01.06.2012 11:00 19,8 C 67 % 1017,3 hPa 0,0 l/m 16,2 km/h SW 13,5 C 16,7 C 9,0 km/h
01.06.2012 12:00 22,9 C 59 % 1017,3 hPa 0,0 l/m 1,9 km/h SW 14,5 C 22,9 C 1,1 km/h
01.06.2012 13:00 21,9 C 57 % 1016,9 hPa 0,0 l/m 8,4 km/h W-SW 13,0 C 21,2 C 4,7 km/h
01.06.2012 14:00 21,3 C 58 % 1016,6 hPa 0,0 l/m 0,0 km/h W 12,7 C 21,3 C 0,0 km/h
01.06.2012 15:00 22,7 C 54 % 1016,2 hPa 0,0 l/m 7,8 km/h N-NO 12,9 C 22,2 C 4,3 km/h
01.06.2012 16:00 24,3 C 51 % 1016,0 hPa 0,0 l/m 7,1 km/h N-NO 13,5 C 24,1 C 4,0 km/h
01.06.2012 17:00 20,1 C 59 % 1015,7 hPa 0,0 l/m 8,4 km/h N 11,8 C 19,3 C 4,7 km/h
01.06.2012 18:00 19,1 C 63 % 1015,9 hPa 0,0 l/m 0,0 km/h NO 11,9 C 19,1 C 0,0 km/h
01.06.2012 19:00 18,4 C 67 % 1015,9 hPa 0,0 l/m 0,0 km/h NO 12,2 C 18,4 C 0,0 km/h
01.06.2012 20:00 17,4 C 71 % 1016,0 hPa 0,0 l/m 0,0 km/h SO 12,1 C 17,4 C 0,0 km/h
01.06.2012 21:00 16,4 C 76 % 1015,9 hPa 0,0 l/m 0,0 km/h O 12,2 C 16,4 C 0,0 km/h
01.06.2012 22:00 14,8 C 79 % 1016,0 hPa 0,0 l/m 0,0 km/h N-NO 11,2 C 14,8 C 0,0 km/h
01.06.2012 23:00 12,8 C 83 % 1015,8 hPa 0,0 l/m 0,0 km/h NO 10,0 C 12,8 C 0,0 km/h
02.06.2012 00:00 12,5 C 83 % 1015,9 hPa 0,0 l/m 0,0 km/h NO 9,7 C 12,5 C 0,0 km/h
02.06.2012 01:00 12,3 C 84 % 1015,3 hPa 0,0 l/m 0,0 km/h N-NO 9,7 C 12,3 C 0,0 km/h
02.06.2012 02:00 11,1 C 83 % 1014,9 hPa 0,0 l/m 0,0 km/h NO 8,3 C 11,1 C 0,0 km/h
02.06.2012 03:00 10,6 C 83 % 1014,5 hPa 0,0 l/m 0,0 km/h N-NO 7,8 C 10,6 C 0,0 km/h
02.06.2012 04:00 10,2 C 82 % 1014,6 hPa 0,0 l/m 0,0 km/h NO 7,3 C 10,2 C 0,0 km/h
02.06.2012 05:00 9,5 C 82 % 1014,7 hPa 0,0 l/m 0,0 km/h SO 6,6 C 9,5 C 0,0 km/h
02.06.2012 06:00 10,1 C 81 % 1014,6 hPa 0,0 l/m 0,0 km/h O-SO 7,0 C 10,1 C 0,0 km/h
02.06.2012 07:00 13,5 C 70 % 1014,5 hPa 0,0 l/m 6,5 km/h SO 8,1 C 13,5 C 3,6 km/h
02.06.2012 08:00 19,9 C 69 % 1014,4 hPa 0,0 l/m 9,1 km/h SO 14,0 C 18,8 C 5,0 km/h
02.06.2012 09:00 26,2 C 52 % 1014,0 hPa 0,0 l/m 0,0 km/h N 15,6 C 26,2 C 0,0 km/h
02.06.2012 10:00 27,3 C 45 % 1013,7 hPa 0,0 l/m 0,0 km/h NW 14,3 C 27,3 C 0,0 km/h
02.06.2012 11:00 27,5 C 40 % 1013,3 hPa 0,0 l/m 1,9 km/h W 12,7 C 27,5 C 1,1 km/h
02.06.2012 12:00 25,2 C 45 % 1013,1 hPa 0,0 l/m 20,1 km/h W-SW 12,4 C 22,9 C 11,2 km/h
02.06.2012 13:00 26,5 C 42 % 1012,4 hPa 0,0 l/m 0,0 km/h O-NO 12,5 C 26,5 C 0,0 km/h
02.06.2012 14:00 27,8 C 38 % 1011,9 hPa 0,0 l/m 0,0 km/h W-NW 12,2 C 27,8 C 0,0 km/h
02.06.2012 15:00 31,1 C 35 % 1011,1 hPa 0,0 l/m 0,0 km/h N 13,8 C 31,1 C 0,0 km/h
02.06.2012 16:00 34,9 C 29 % 1010,5 hPa 0,0 l/m 0,0 km/h N-NO 14,2 C 34,9 C 0,0 km/h
02.06.2012 17:00 34,1 C 30 % 1010,2 hPa 0,0 l/m 12,3 km/h N-NO 14,0 C 34,1 C 6,8 km/h
02.06.2012 18:00 31,5 C 34 % 1009,9 hPa 0,0 l/m 11,7 km/h N 13,7 C 31,3 C 6,5 km/h
02.06.2012 19:00 26,4 C 41 % 1009,7 hPa 0,0 l/m 0,0 km/h O-SO 12,1 C 26,4 C 0,0 km/h
02.06.2012 20:00 22,3 C 52 % 1009,7 hPa 0,0 l/m 5,2 km/h O-NO 12,0 C 22,3 C 2,9 km/h
02.06.2012 21:00 18,0 C 67 % 1009,9 hPa 0,0 l/m 0,0 km/h NO 11,8 C 18,0 C 0,0 km/h
02.06.2012 22:00 16,5 C 72 % 1009,4 hPa 0,0 l/m 0,0 km/h SO 11,4 C 16,5 C 0,0 km/h
02.06.2012 23:00 14,9 C 77 % 1009,6 hPa 0,0 l/m 0,0 km/h NO 10,9 C 14,9 C 0,0 km/h
03.06.2012 00:00 15,0 C 79 % 1009,6 hPa 0,0 l/m 0,0 km/h NO 11,4 C 15,0 C 0,0 km/h
03.06.2012 01:00 13,9 C 80 % 1008,8 hPa 0,0 l/m 0,0 km/h O-NO 10,5 C 13,9 C 0,0 km/h
03.06.2012 02:00 12,9 C 82 % 1008,2 hPa 0,0 l/m 0,0 km/h O-NO 9,9 C 12,9 C 0,0 km/h
03.06.2012 03:00 12,7 C 83 % 1008,4 hPa 0,0 l/m 0,0 km/h O-NO 9,9 C 12,7 C 0,0 km/h
03.06.2012 04:00 11,9 C 83 % 1007,8 hPa 0,0 l/m 0,0 km/h NO 9,1 C 11,9 C 0,0 km/h
03.06.2012 05:00 12,9 C 83 % 1006,8 hPa 0,0 l/m 0,0 km/h O-NO 10,1 C 12,9 C 0,0 km/h
03.06.2012 06:00 13,5 C 83 % 1006,4 hPa 0,0 l/m 0,0 km/h N 10,7 C 13,5 C 0,0 km/h
03.06.2012 07:00 14,6 C 83 % 1008,5 hPa 0,0 l/m 0,0 km/h NO 11,7 C 14,6 C 0,0 km/h
03.06.2012 08:00 15,1 C 82 % 1009,3 hPa 1,1 l/m 0,0 km/h S-SO 12,0 C 15,1 C 0,0 km/h
03.06.2012 09:00 16,9 C 80 % 1007,9 hPa 1,1 l/m 4,5 km/h W-SW 13,4 C 16,9 C 2,5 km/h
03.06.2012 10:00 18,7 C 82 % 1008,0 hPa 0,4 l/m 0,0 km/h S-SW 15,6 C 18,7 C 0,0 km/h
03.06.2012 11:00 18,9 C 81 % 1007,4 hPa 0,0 l/m 22,0 km/h W 15,6 C 14,4 C 12,2 km/h
03.06.2012 12:00 20,1 C 78 % 1007,2 hPa 0,0 l/m 16,2 km/h S-SW 16,1 C 17,1 C 9,0 km/h
03.06.2012 13:00 20,5 C 75 % 1007,1 hPa 0,0 l/m 17,5 km/h S 15,9 C 17,3 C 9,7 km/h
03.06.2012 14:00 19,8 C 76 % 1007,4 hPa 0,0 l/m 22,7 km/h SW 15,4 C 15,5 C 12,6 km/h
03.06.2012 15:00 17,8 C 83 % 1007,5 hPa 0,7 l/m 28,5 km/h W 14,9 C 11,8 C 15,8 km/h
03.06.2012 16:00 17,1 C 82 % 1008,3 hPa 0,4 l/m 24,6 km/h SW 14,0 C 11,5 C 13,7 km/h
03.06.2012 17:00 17,1 C 81 % 1008,8 hPa 0,4 l/m 22,7 km/h W-SW 13,8 C 11,9 C 12,6 km/h
03.06.2012 18:00 16,5 C 79 % 1009,2 hPa 0,7 l/m 9,1 km/h S 12,8 C 15,2 C 5,0 km/h
03.06.2012 19:00 15,8 C 79 % 1009,6 hPa 0,7 l/m 11,7 km/h W-SW 12,2 C 13,3 C 6,5 km/h
03.06.2012 20:00 15,9 C 83 % 1009,4 hPa 0,0 l/m 3,9 km/h W 13,0 C 15,9 C 2,2 km/h
03.06.2012 21:00 15,5 C 84 % 1009,6 hPa 0,0 l/m 6,5 km/h NW 12,8 C 15,5 C 3,6 km/h
03.06.2012 22:00 14,8 C 80 % 1010,8 hPa 0,4 l/m 6,5 km/h SW 11,4 C 14,8 C 3,6 km/h
03.06.2012 23:00 14,3 C 77 % 1010,8 hPa 6,1 l/m 13,0 km/h W 10,3 C 11,1 C 7,2 km/h
Min-Datum _ 28.05.12 29.05.12 03.06.12 - 28.05.12 - 28.05.12 28.05.12 28.05.12
_ Min-Zeit 05:30 17:30 06:30 - 00:30 - 05:30 05:30 00:30
Minimum _ 8,7 C 21 % 1006,4 hPa - 0,0 km/h - 6,0 C 8,7 C 0,0 km/h
Max-Datum _ 29.05.12 31.05.12 31.05.12 03.06.12 03.06.12 - 31.05.12 29.05.12 03.06.12
_ Max-Zeit 17:30 04:30 09:30 23:30 15:30 - 10:30 17:30 15:30
Maximum _ 35,3 C 84 % 1018,4 hPa 6,1 l/m 28,5 km/h
W
- 16,3 C 35,3 C 15,8 km/h
W
Durchschnitt _ 19,6 C 64 % 1013,7 hPa #14,9 l/m 3,7 km/h N-NO 11,5 C 19,2 C 2,0 km/h
www.sexauwetter.de